sensor_id;sensor_type;location;lat;lon;timestamp;P1;durP1;ratioP1;P2;durP2;ratioP2
9304;SDS011;4690;52.422;13.486;2023-11-21T00:12:13;6.53;;;4.27;;
9304;SDS011;4690;52.422;13.486;2023-11-21T00:14:39;5.97;;;3.93;;
9304;SDS011;4690;52.422;13.486;2023-11-21T00:17:05;6.13;;;4.90;;
9304;SDS011;4690;52.422;13.486;2023-11-21T00:19:31;6.63;;;4.87;;
9304;SDS011;4690;52.422;13.486;2023-11-21T00:21:59;7.80;;;6.93;;
9304;SDS011;4690;52.422;13.486;2023-11-21T00:24:25;7.97;;;6.47;;
9304;SDS011;4690;52.422;13.486;2023-11-21T00:26:51;7.87;;;7.13;;
9304;SDS011;4690;52.422;13.486;2023-11-21T00:29:18;8.70;;;7.50;;
9304;SDS011;4690;52.422;13.486;2023-11-21T00:31:44;8.67;;;7.87;;
9304;SDS011;4690;52.422;13.486;2023-11-21T00:34:11;9.60;;;8.10;;
9304;SDS011;4690;52.422;13.486;2023-11-21T00:36:37;10.67;;;8.73;;
9304;SDS011;4690;52.422;13.486;2023-11-21T00:39:03;10.90;;;9.50;;
9304;SDS011;4690;52.422;13.486;2023-11-21T00:41:30;9.30;;;8.40;;
9304;SDS011;4690;52.422;13.486;2023-11-21T00:43:57;11.07;;;9.90;;
9304;SDS011;4690;52.422;13.486;2023-11-21T00:46:24;12.73;;;11.33;;
9304;SDS011;4690;52.422;13.486;2023-11-21T00:48:52;13.30;;;11.27;;
9304;SDS011;4690;52.422;13.486;2023-11-21T00:51:19;12.87;;;11.57;;
9304;SDS011;4690;52.422;13.486;2023-11-21T00:53:45;19.57;;;13.73;;
9304;SDS011;4690;52.422;13.486;2023-11-21T00:56:12;16.70;;;14.10;;
9304;SDS011;4690;52.422;13.486;2023-11-21T00:58:39;20.87;;;15.37;;
9304;SDS011;4690;52.422;13.486;2023-11-21T01:01:08;21.80;;;16.30;;
9304;SDS011;4690;52.422;13.486;2023-11-21T01:03:34;23.53;;;17.27;;
9304;SDS011;4690;52.422;13.486;2023-11-21T01:06:00;23.60;;;17.50;;
9304;SDS011;4690;52.422;13.486;2023-11-21T01:08:26;26.70;;;18.50;;
9304;SDS011;4690;52.422;13.486;2023-11-21T01:10:52;24.67;;;17.97;;
9304;SDS011;4690;52.422;13.486;2023-11-21T01:13:18;20.70;;;16.63;;
9304;SDS011;4690;52.422;13.486;2023-11-21T01:15:44;32.60;;;20.50;;
9304;SDS011;4690;52.422;13.486;2023-11-21T01:18:10;36.07;;;21.33;;
9304;SDS011;4690;52.422;13.486;2023-11-21T01:20:35;30.43;;;20.63;;
9304;SDS011;4690;52.422;13.486;2023-11-21T01:23:01;34.80;;;22.23;;
9304;SDS011;4690;52.422;13.486;2023-11-21T01:25:27;33.33;;;22.30;;
9304;SDS011;4690;52.422;13.486;2023-11-21T01:27:53;38.77;;;25.10;;
9304;SDS011;4690;52.422;13.486;2023-11-21T01:30:18;30.20;;;22.50;;
9304;SDS011;4690;52.422;13.486;2023-11-21T01:32:44;34.97;;;23.43;;
9304;SDS011;4690;52.422;13.486;2023-11-21T01:35:10;36.03;;;24.37;;
9304;SDS011;4690;52.422;13.486;2023-11-21T01:37:36;37.63;;;25.13;;
9304;SDS011;4690;52.422;13.486;2023-11-21T01:40:03;50.47;;;27.57;;
9304;SDS011;4690;52.422;13.486;2023-11-21T01:42:38;44.20;;;25.13;;
9304;SDS011;4690;52.422;13.486;2023-11-21T01:45:05;45.33;;;26.20;;
9304;SDS011;4690;52.422;13.486;2023-11-21T01:47:32;54.50;;;28.87;;
9304;SDS011;4690;52.422;13.486;2023-11-21T01:50:00;48.20;;;25.80;;
9304;SDS011;4690;52.422;13.486;2023-11-21T01:52:29;47.13;;;28.17;;
9304;SDS011;4690;52.422;13.486;2023-11-21T01:54:56;51.33;;;28.93;;
9304;SDS011;4690;52.422;13.486;2023-11-21T01:57:24;54.23;;;29.40;;
9304;SDS011;4690;52.422;13.486;2023-11-21T01:59:50;63.10;;;31.47;;
9304;SDS011;4690;52.422;13.486;2023-11-21T02:02:19;53.60;;;29.77;;
9304;SDS011;4690;52.422;13.486;2023-11-21T02:04:45;46.47;;;28.50;;
9304;SDS011;4690;52.422;13.486;2023-11-21T02:07:11;55.63;;;30.37;;
9304;SDS011;4690;52.422;13.486;2023-11-21T02:09:37;55.87;;;29.97;;
9304;SDS011;4690;52.422;13.486;2023-11-21T02:12:03;75.50;;;34.40;;
9304;SDS011;4690;52.422;13.486;2023-11-21T02:14:30;68.87;;;34.90;;
9304;SDS011;4690;52.422;13.486;2023-11-21T02:16:56;66.30;;;33.33;;
9304;SDS011;4690;52.422;13.486;2023-11-21T02:19:22;74.57;;;34.33;;
9304;SDS011;4690;52.422;13.486;2023-11-21T02:21:50;69.53;;;31.80;;
9304;SDS011;4690;52.422;13.486;2023-11-21T02:24:19;56.40;;;26.90;;
9304;SDS011;4690;52.422;13.486;2023-11-21T02:26:48;57.13;;;26.67;;
9304;SDS011;4690;52.422;13.486;2023-11-21T02:29:18;54.97;;;25.70;;
9304;SDS011;4690;52.422;13.486;2023-11-21T02:31:47;45.33;;;22.87;;
9304;SDS011;4690;52.422;13.486;2023-11-21T02:34:16;50.57;;;22.97;;
9304;SDS011;4690;52.422;13.486;2023-11-21T02:36:43;49.20;;;23.60;;
9304;SDS011;4690;52.422;13.486;2023-11-21T02:39:09;48.23;;;22.97;;
9304;SDS011;4690;52.422;13.486;2023-11-21T02:41:37;46.33;;;22.80;;
9304;SDS011;4690;52.422;13.486;2023-11-21T02:44:04;45.47;;;20.87;;
9304;SDS011;4690;52.422;13.486;2023-11-21T02:46:33;43.27;;;22.60;;
9304;SDS011;4690;52.422;13.486;2023-11-21T02:49:01;41.93;;;20.93;;
9304;SDS011;4690;52.422;13.486;2023-11-21T02:51:35;41.30;;;21.17;;
9304;SDS011;4690;52.422;13.486;2023-11-21T02:54:03;44.67;;;21.40;;
9304;SDS011;4690;52.422;13.486;2023-11-21T02:56:31;38.57;;;20.40;;
9304;SDS011;4690;52.422;13.486;2023-11-21T02:58:59;33.77;;;19.67;;
9304;SDS011;4690;52.422;13.486;2023-11-21T03:01:26;43.87;;;21.17;;
9304;SDS011;4690;52.422;13.486;2023-11-21T03:03:52;33.10;;;19.40;;
9304;SDS011;4690;52.422;13.486;2023-11-21T03:06:20;41.77;;;21.40;;
9304;SDS011;4690;52.422;13.486;2023-11-21T03:08:46;41.50;;;21.07;;
9304;SDS011;4690;52.422;13.486;2023-11-21T03:11:13;46.23;;;21.33;;
9304;SDS011;4690;52.422;13.486;2023-11-21T03:13:40;37.50;;;20.40;;
9304;SDS011;4690;52.422;13.486;2023-11-21T03:16:09;45.47;;;22.43;;
9304;SDS011;4690;52.422;13.486;2023-11-21T03:18:36;36.23;;;20.03;;
9304;SDS011;4690;52.422;13.486;2023-11-21T03:21:03;30.43;;;18.30;;
9304;SDS011;4690;52.422;13.486;2023-11-21T03:23:30;31.73;;;18.43;;
9304;SDS011;4690;52.422;13.486;2023-11-21T03:25:57;35.50;;;19.53;;
9304;SDS011;4690;52.422;13.486;2023-11-21T03:28:23;31.53;;;18.73;;
9304;SDS011;4690;52.422;13.486;2023-11-21T03:30:49;39.10;;;20.43;;
9304;SDS011;4690;52.422;13.486;2023-11-21T03:33:14;34.67;;;19.57;;
9304;SDS011;4690;52.422;13.486;2023-11-21T03:35:40;23.70;;;16.47;;
9304;SDS011;4690;52.422;13.486;2023-11-21T03:38:07;30.50;;;19.33;;
9304;SDS011;4690;52.422;13.486;2023-11-21T03:40:34;26.33;;;17.47;;
9304;SDS011;4690;52.422;13.486;2023-11-21T03:43:00;28.27;;;18.10;;
9304;SDS011;4690;52.422;13.486;2023-11-21T03:45:26;22.93;;;17.10;;
9304;SDS011;4690;52.422;13.486;2023-11-21T03:47:52;27.97;;;18.50;;
9304;SDS011;4690;52.422;13.486;2023-11-21T03:50:17;24.77;;;17.53;;
9304;SDS011;4690;52.422;13.486;2023-11-21T03:52:43;25.43;;;17.37;;
9304;SDS011;4690;52.422;13.486;2023-11-21T03:55:09;21.27;;;17.80;;
9304;SDS011;4690;52.422;13.486;2023-11-21T03:57:38;19.97;;;16.07;;
9304;SDS011;4690;52.422;13.486;2023-11-21T04:00:04;18.20;;;16.20;;
9304;SDS011;4690;52.422;13.486;2023-11-21T04:02:33;21.03;;;16.93;;
9304;SDS011;4690;52.422;13.486;2023-11-21T04:05:00;22.23;;;17.47;;
9304;SDS011;4690;52.422;13.486;2023-11-21T04:07:26;23.30;;;17.63;;
9304;SDS011;4690;52.422;13.486;2023-11-21T04:09:52;20.63;;;17.13;;
9304;SDS011;4690;52.422;13.486;2023-11-21T04:12:18;18.83;;;16.37;;
9304;SDS011;4690;52.422;13.486;2023-11-21T04:14:44;27.33;;;20.20;;
9304;SDS011;4690;52.422;13.486;2023-11-21T04:17:10;23.80;;;17.77;;
9304;SDS011;4690;52.422;13.486;2023-11-21T04:19:36;20.67;;;17.17;;
9304;SDS011;4690;52.422;13.486;2023-11-21T04:22:02;20.20;;;16.37;;
9304;SDS011;4690;52.422;13.486;2023-11-21T04:24:27;18.97;;;16.67;;
9304;SDS011;4690;52.422;13.486;2023-11-21T04:26:53;21.93;;;18.23;;
9304;SDS011;4690;52.422;13.486;2023-11-21T04:29:19;19.10;;;17.00;;
9304;SDS011;4690;52.422;13.486;2023-11-21T04:31:44;20.00;;;16.90;;
9304;SDS011;4690;52.422;13.486;2023-11-21T04:34:11;20.57;;;16.67;;
9304;SDS011;4690;52.422;13.486;2023-11-21T04:36:38;21.13;;;16.80;;
9304;SDS011;4690;52.422;13.486;2023-11-21T04:39:05;16.40;;;14.40;;
9304;SDS011;4690;52.422;13.486;2023-11-21T04:41:31;14.33;;;12.83;;
9304;SDS011;4690;52.422;13.486;2023-11-21T04:43:57;14.00;;;12.60;;
9304;SDS011;4690;52.422;13.486;2023-11-21T04:46:25;12.70;;;11.40;;
9304;SDS011;4690;52.422;13.486;2023-11-21T04:48:51;13.03;;;11.63;;
9304;SDS011;4690;52.422;13.486;2023-11-21T04:51:17;12.80;;;10.97;;
9304;SDS011;4690;52.422;13.486;2023-11-21T04:53:43;11.50;;;10.30;;
9304;SDS011;4690;52.422;13.486;2023-11-21T04:56:09;13.27;;;11.67;;
9304;SDS011;4690;52.422;13.486;2023-11-21T04:58:34;14.83;;;11.30;;
9304;SDS011;4690;52.422;13.486;2023-11-21T05:01:01;11.80;;;10.60;;
9304;SDS011;4690;52.422;13.486;2023-11-21T05:03:26;12.83;;;11.53;;
9304;SDS011;4690;52.422;13.486;2023-11-21T05:05:54;12.73;;;11.50;;
9304;SDS011;4690;52.422;13.486;2023-11-21T05:08:20;12.57;;;11.23;;
9304;SDS011;4690;52.422;13.486;2023-11-21T05:10:47;14.93;;;11.30;;
9304;SDS011;4690;52.422;13.486;2023-11-21T05:13:14;14.50;;;11.63;;
9304;SDS011;4690;52.422;13.486;2023-11-21T05:15:42;12.57;;;11.30;;
9304;SDS011;4690;52.422;13.486;2023-11-21T05:18:09;12.67;;;11.07;;
9304;SDS011;4690;52.422;13.486;2023-11-21T05:20:35;14.17;;;11.60;;
9304;SDS011;4690;52.422;13.486;2023-11-21T05:23:02;13.87;;;11.83;;
9304;SDS011;4690;52.422;13.486;2023-11-21T05:25:27;13.37;;;11.97;;
9304;SDS011;4690;52.422;13.486;2023-11-21T05:27:53;12.00;;;10.77;;
9304;SDS011;4690;52.422;13.486;2023-11-21T05:30:24;13.73;;;11.00;;
9304;SDS011;4690;52.422;13.486;2023-11-21T05:32:50;13.50;;;11.33;;
9304;SDS011;4690;52.422;13.486;2023-11-21T05:35:15;15.03;;;11.30;;
9304;SDS011;4690;52.422;13.486;2023-11-21T05:37:41;14.43;;;11.50;;
9304;SDS011;4690;52.422;13.486;2023-11-21T05:40:07;12.47;;;10.97;;
9304;SDS011;4690;52.422;13.486;2023-11-21T05:42:35;12.83;;;11.20;;
9304;SDS011;4690;52.422;13.486;2023-11-21T05:45:03;11.70;;;10.50;;
9304;SDS011;4690;52.422;13.486;2023-11-21T05:47:39;11.20;;;10.10;;
9304;SDS011;4690;52.422;13.486;2023-11-21T05:50:11;10.70;;;9.57;;
9304;SDS011;4690;52.422;13.486;2023-11-21T05:52:41;15.10;;;12.23;;
9304;SDS011;4690;52.422;13.486;2023-11-21T05:55:08;12.07;;;10.80;;
9304;SDS011;4690;52.422;13.486;2023-11-21T05:57:34;11.10;;;10.00;;
9304;SDS011;4690;52.422;13.486;2023-11-21T06:00:23;12.07;;;10.80;;
9304;SDS011;4690;52.422;13.486;2023-11-21T06:02:50;16.03;;;10.17;;
9304;SDS011;4690;52.422;13.486;2023-11-21T06:05:18;11.27;;;10.10;;
9304;SDS011;4690;52.422;13.486;2023-11-21T06:07:48;11.53;;;10.33;;
9304;SDS011;4690;52.422;13.486;2023-11-21T06:10:15;13.17;;;10.97;;
9304;SDS011;4690;52.422;13.486;2023-11-21T06:12:42;11.97;;;10.67;;
9304;SDS011;4690;52.422;13.486;2023-11-21T06:15:09;11.70;;;10.47;;
9304;SDS011;4690;52.422;13.486;2023-11-21T06:17:38;11.30;;;10.20;;
9304;SDS011;4690;52.422;13.486;2023-11-21T06:20:06;11.13;;;9.93;;
9304;SDS011;4690;52.422;13.486;2023-11-21T06:22:37;10.17;;;9.17;;
9304;SDS011;4690;52.422;13.486;2023-11-21T06:25:05;13.17;;;10.33;;
9304;SDS011;4690;52.422;13.486;2023-11-21T06:27:33;10.30;;;9.20;;
9304;SDS011;4690;52.422;13.486;2023-11-21T06:30:01;11.53;;;9.93;;
9304;SDS011;4690;52.422;13.486;2023-11-21T06:32:27;11.17;;;10.07;;
9304;SDS011;4690;52.422;13.486;2023-11-21T06:34:54;10.93;;;9.83;;
9304;SDS011;4690;52.422;13.486;2023-11-21T06:37:24;11.93;;;10.50;;
9304;SDS011;4690;52.422;13.486;2023-11-21T06:39:52;11.17;;;8.80;;
9304;SDS011;4690;52.422;13.486;2023-11-21T06:42:18;10.37;;;9.20;;
9304;SDS011;4690;52.422;13.486;2023-11-21T06:44:45;10.67;;;9.50;;
9304;SDS011;4690;52.422;13.486;2023-11-21T06:47:11;11.23;;;9.33;;
9304;SDS011;4690;52.422;13.486;2023-11-21T06:49:37;10.50;;;8.60;;
9304;SDS011;4690;52.422;13.486;2023-11-21T06:52:03;9.30;;;8.33;;
9304;SDS011;4690;52.422;13.486;2023-11-21T06:54:32;11.17;;;7.97;;
9304;SDS011;4690;52.422;13.486;2023-11-21T06:56:59;10.07;;;8.53;;
9304;SDS011;4690;52.422;13.486;2023-11-21T06:59:28;9.73;;;8.80;;
9304;SDS011;4690;52.422;13.486;2023-11-21T07:01:54;9.73;;;8.60;;
9304;SDS011;4690;52.422;13.486;2023-11-21T07:04:19;9.77;;;8.87;;
9304;SDS011;4690;52.422;13.486;2023-11-21T07:06:45;9.47;;;8.57;;
9304;SDS011;4690;52.422;13.486;2023-11-21T07:09:11;9.70;;;8.50;;
9304;SDS011;4690;52.422;13.486;2023-11-21T07:11:37;10.23;;;9.23;;
9304;SDS011;4690;52.422;13.486;2023-11-21T07:14:03;9.50;;;8.50;;
9304;SDS011;4690;52.422;13.486;2023-11-21T07:16:37;10.07;;;9.07;;
9304;SDS011;4690;52.422;13.486;2023-11-21T07:19:09;9.53;;;8.63;;
9304;SDS011;4690;52.422;13.486;2023-11-21T07:21:35;8.50;;;7.70;;
9304;SDS011;4690;52.422;13.486;2023-11-21T07:24:01;9.50;;;8.63;;
9304;SDS011;4690;52.422;13.486;2023-11-21T07:26:29;9.07;;;8.17;;
9304;SDS011;4690;52.422;13.486;2023-11-21T07:28:55;9.53;;;8.63;;
9304;SDS011;4690;52.422;13.486;2023-11-21T07:31:22;9.20;;;8.30;;
9304;SDS011;4690;52.422;13.486;2023-11-21T07:33:49;8.63;;;7.83;;
9304;SDS011;4690;52.422;13.486;2023-11-21T07:36:16;10.10;;;9.10;;
9304;SDS011;4690;52.422;13.486;2023-11-21T07:38:48;9.10;;;8.20;;
9304;SDS011;4690;52.422;13.486;2023-11-21T07:41:14;9.80;;;8.90;;
9304;SDS011;4690;52.422;13.486;2023-11-21T07:43:41;9.63;;;8.73;;
9304;SDS011;4690;52.422;13.486;2023-11-21T07:46:07;8.70;;;7.90;;
9304;SDS011;4690;52.422;13.486;2023-11-21T07:48:33;9.23;;;8.43;;
9304;SDS011;4690;52.422;13.486;2023-11-21T07:51:00;8.80;;;8.00;;
9304;SDS011;4690;52.422;13.486;2023-11-21T07:53:31;9.03;;;8.10;;
9304;SDS011;4690;52.422;13.486;2023-11-21T07:56:04;8.37;;;7.57;;
9304;SDS011;4690;52.422;13.486;2023-11-21T07:58:35;11.73;;;8.23;;
9304;SDS011;4690;52.422;13.486;2023-11-21T08:01:02;11.50;;;8.50;;
9304;SDS011;4690;52.422;13.486;2023-11-21T08:03:29;15.57;;;10.10;;
9304;SDS011;4690;52.422;13.486;2023-11-21T08:05:56;14.20;;;9.73;;
9304;SDS011;4690;52.422;13.486;2023-11-21T08:08:23;15.57;;;10.07;;
9304;SDS011;4690;52.422;13.486;2023-11-21T08:10:49;15.70;;;9.60;;
9304;SDS011;4690;52.422;13.486;2023-11-21T08:13:24;18.57;;;10.47;;
9304;SDS011;4690;52.422;13.486;2023-11-21T08:15:55;17.77;;;10.90;;
9304;SDS011;4690;52.422;13.486;2023-11-21T08:18:27;19.37;;;11.53;;
9304;SDS011;4690;52.422;13.486;2023-11-21T08:20:57;19.63;;;11.50;;
9304;SDS011;4690;52.422;13.486;2023-11-21T08:23:22;21.70;;;12.00;;
9304;SDS011;4690;52.422;13.486;2023-11-21T08:25:51;21.50;;;13.20;;
9304;SDS011;4690;52.422;13.486;2023-11-21T08:28:18;18.20;;;11.97;;
9304;SDS011;4690;52.422;13.486;2023-11-21T08:30:48;25.83;;;13.90;;
9304;SDS011;4690;52.422;13.486;2023-11-21T08:33:14;22.00;;;13.40;;
9304;SDS011;4690;52.422;13.486;2023-11-21T08:35:40;22.27;;;13.17;;
9304;SDS011;4690;52.422;13.486;2023-11-21T08:38:05;19.73;;;13.07;;
9304;SDS011;4690;52.422;13.486;2023-11-21T08:40:31;23.07;;;13.87;;
9304;SDS011;4690;52.422;13.486;2023-11-21T08:42:57;23.40;;;14.67;;
9304;SDS011;4690;52.422;13.486;2023-11-21T08:45:29;25.47;;;14.53;;
9304;SDS011;4690;52.422;13.486;2023-11-21T08:47:56;21.87;;;13.87;;
9304;SDS011;4690;52.422;13.486;2023-11-21T08:50:21;25.50;;;14.33;;
9304;SDS011;4690;52.422;13.486;2023-11-21T08:52:47;24.87;;;13.73;;
9304;SDS011;4690;52.422;13.486;2023-11-21T08:55:13;24.00;;;13.57;;
9304;SDS011;4690;52.422;13.486;2023-11-21T08:57:40;29.57;;;14.00;;
9304;SDS011;4690;52.422;13.486;2023-11-21T09:00:08;21.47;;;13.20;;
9304;SDS011;4690;52.422;13.486;2023-11-21T09:02:41;22.60;;;13.33;;
9304;SDS011;4690;52.422;13.486;2023-11-21T09:05:07;22.37;;;13.17;;
9304;SDS011;4690;52.422;13.486;2023-11-21T09:07:38;22.67;;;13.70;;
9304;SDS011;4690;52.422;13.486;2023-11-21T09:10:06;24.00;;;13.80;;
9304;SDS011;4690;52.422;13.486;2023-11-21T09:12:34;20.70;;;12.83;;
9304;SDS011;4690;52.422;13.486;2023-11-21T09:15:04;21.87;;;13.17;;
9304;SDS011;4690;52.422;13.486;2023-11-21T09:17:32;21.03;;;12.40;;
9304;SDS011;4690;52.422;13.486;2023-11-21T09:19:59;21.23;;;12.40;;
9304;SDS011;4690;52.422;13.486;2023-11-21T09:22:25;13.70;;;8.70;;
9304;SDS011;4690;52.422;13.486;2023-11-21T09:24:51;12.60;;;6.63;;
9304;SDS011;4690;52.422;13.486;2023-11-21T09:27:17;11.83;;;7.17;;
9304;SDS011;4690;52.422;13.486;2023-11-21T09:29:43;10.23;;;6.43;;
9304;SDS011;4690;52.422;13.486;2023-11-21T09:32:09;10.57;;;6.13;;
9304;SDS011;4690;52.422;13.486;2023-11-21T09:34:37;9.80;;;6.20;;
9304;SDS011;4690;52.422;13.486;2023-11-21T09:37:06;7.07;;;4.90;;
9304;SDS011;4690;52.422;13.486;2023-11-21T09:39:33;6.50;;;4.40;;
9304;SDS011;4690;52.422;13.486;2023-11-21T09:42:08;4.97;;;4.17;;
9304;SDS011;4690;52.422;13.486;2023-11-21T09:47:29;4.97;;;4.40;;
9304;SDS011;4690;52.422;13.486;2023-11-21T09:49:55;6.37;;;4.63;;
9304;SDS011;4690;52.422;13.486;2023-11-21T09:52:26;6.50;;;4.77;;
9304;SDS011;4690;52.422;13.486;2023-11-21T09:54:53;9.27;;;5.00;;
9304;SDS011;4690;52.422;13.486;2023-11-21T09:57:23;6.50;;;4.90;;
9304;SDS011;4690;52.422;13.486;2023-11-21T09:59:54;7.63;;;4.70;;
9304;SDS011;4690;52.422;13.486;2023-11-21T10:02:28;5.80;;;4.70;;
9304;SDS011;4690;52.422;13.486;2023-11-21T10:04:55;6.87;;;4.97;;
9304;SDS011;4690;52.422;13.486;2023-11-21T10:07:21;6.80;;;4.53;;
9304;SDS011;4690;52.422;13.486;2023-11-21T10:09:48;5.97;;;3.80;;
9304;SDS011;4690;52.422;13.486;2023-11-21T10:12:18;4.17;;;3.33;;
9304;SDS011;4690;52.422;13.486;2023-11-21T10:14:47;4.30;;;3.50;;
9304;SDS011;4690;52.422;13.486;2023-11-21T10:17:14;3.70;;;3.30;;
9304;SDS011;4690;52.422;13.486;2023-11-21T10:19:43;3.40;;;3.10;;
9304;SDS011;4690;52.422;13.486;2023-11-21T10:22:12;3.43;;;3.10;;
9304;SDS011;4690;52.422;13.486;2023-11-21T10:24:41;3.60;;;3.30;;
9304;SDS011;4690;52.422;13.486;2023-11-21T10:27:08;3.60;;;3.30;;
9304;SDS011;4690;52.422;13.486;2023-11-21T10:29:34;2.93;;;2.73;;
9304;SDS011;4690;52.422;13.486;2023-11-21T10:32:01;2.80;;;2.60;;
9304;SDS011;4690;52.422;13.486;2023-11-21T10:34:28;2.53;;;2.33;;
9304;SDS011;4690;52.422;13.486;2023-11-21T10:36:54;2.67;;;2.47;;
9304;SDS011;4690;52.422;13.486;2023-11-21T10:39:23;3.10;;;2.80;;
9304;SDS011;4690;52.422;13.486;2023-11-21T10:41:52;2.80;;;2.60;;
9304;SDS011;4690;52.422;13.486;2023-11-21T10:44:20;3.20;;;2.90;;
9304;SDS011;4690;52.422;13.486;2023-11-21T10:46:55;2.93;;;2.73;;
9304;SDS011;4690;52.422;13.486;2023-11-21T10:49:22;3.20;;;2.90;;
9304;SDS011;4690;52.422;13.486;2023-11-21T10:51:50;3.07;;;2.87;;
9304;SDS011;4690;52.422;13.486;2023-11-21T10:54:22;3.23;;;2.93;;
9304;SDS011;4690;52.422;13.486;2023-11-21T10:56:59;3.40;;;3.10;;
9304;SDS011;4690;52.422;13.486;2023-11-21T10:59:30;4.97;;;3.10;;
9304;SDS011;4690;52.422;13.486;2023-11-21T11:01:59;4.40;;;2.90;;
9304;SDS011;4690;52.422;13.486;2023-11-21T11:04:59;3.60;;;2.97;;
9304;SDS011;4690;52.422;13.486;2023-11-21T11:07:26;3.20;;;2.90;;
9304;SDS011;4690;52.422;13.486;2023-11-21T11:09:58;2.80;;;2.60;;
9304;SDS011;4690;52.422;13.486;2023-11-21T11:12:25;3.37;;;3.07;;
9304;SDS011;4690;52.422;13.486;2023-11-21T11:14:51;3.77;;;3.03;;
9304;SDS011;4690;52.422;13.486;2023-11-21T11:17:18;3.27;;;2.97;;
9304;SDS011;4690;52.422;13.486;2023-11-21T11:19:47;3.17;;;2.97;;
9304;SDS011;4690;52.422;13.486;2023-11-21T11:36:28;4.27;;;3.47;;
9304;SDS011;4690;52.422;13.486;2023-11-21T11:39:02;3.77;;;3.47;;
9304;SDS011;4690;52.422;13.486;2023-11-21T11:41:48;3.90;;;3.60;;
9304;SDS011;4690;52.422;13.486;2023-11-21T11:47:19;4.20;;;3.80;;
9304;SDS011;4690;52.422;13.486;2023-11-21T11:52:44;5.27;;;4.23;;
9304;SDS011;4690;52.422;13.486;2023-11-21T11:55:11;4.50;;;4.10;;
9304;SDS011;4690;52.422;13.486;2023-11-21T11:57:46;4.57;;;4.13;;
9304;SDS011;4690;52.422;13.486;2023-11-21T12:02:54;4.57;;;4.13;;
9304;SDS011;4690;52.422;13.486;2023-11-21T12:05:27;4.90;;;4.50;;
9304;SDS011;4690;52.422;13.486;2023-11-21T12:07:56;4.67;;;4.07;;
9304;SDS011;4690;52.422;13.486;2023-11-21T12:10:30;4.17;;;3.77;;
9304;SDS011;4690;52.422;13.486;2023-11-21T12:15:27;4.47;;;4.07;;
9304;SDS011;4690;52.422;13.486;2023-11-21T12:17:55;4.03;;;3.67;;
9304;SDS011;4690;52.422;13.486;2023-11-21T12:20:22;4.40;;;3.63;;
9304;SDS011;4690;52.422;13.486;2023-11-21T12:22:50;3.67;;;3.37;;
9304;SDS011;4690;52.422;13.486;2023-11-21T12:25:18;3.47;;;2.93;;
9304;SDS011;4690;52.422;13.486;2023-11-21T12:27:47;3.87;;;3.30;;
9304;SDS011;4690;52.422;13.486;2023-11-21T12:30:18;3.37;;;3.17;;
9304;SDS011;4690;52.422;13.486;2023-11-21T12:32:50;4.23;;;3.37;;
9304;SDS011;4690;52.422;13.486;2023-11-21T12:35:22;3.63;;;3.33;;
9304;SDS011;4690;52.422;13.486;2023-11-21T12:37:51;3.30;;;3.00;;
9304;SDS011;4690;52.422;13.486;2023-11-21T12:40:18;4.10;;;3.70;;
9304;SDS011;4690;52.422;13.486;2023-11-21T12:42:45;4.53;;;3.33;;
9304;SDS011;4690;52.422;13.486;2023-11-21T12:47:48;3.90;;;3.60;;
9304;SDS011;4690;52.422;13.486;2023-11-21T12:50:29;4.10;;;3.70;;
9304;SDS011;4690;52.422;13.486;2023-11-21T12:53:03;3.90;;;3.33;;
9304;SDS011;4690;52.422;13.486;2023-11-21T12:55:33;3.90;;;3.47;;
9304;SDS011;4690;52.422;13.486;2023-11-21T12:58:03;3.80;;;3.50;;
9304;SDS011;4690;52.422;13.486;2023-11-21T13:00:35;4.13;;;3.83;;
9304;SDS011;4690;52.422;13.486;2023-11-21T13:03:08;4.67;;;3.97;;
9304;SDS011;4690;52.422;13.486;2023-11-21T13:05:38;8.53;;;4.27;;
9304;SDS011;4690;52.422;13.486;2023-11-21T13:08:10;4.10;;;3.70;;
9304;SDS011;4690;52.422;13.486;2023-11-21T13:10:38;6.33;;;4.50;;
9304;SDS011;4690;52.422;13.486;2023-11-21T13:13:09;5.30;;;4.10;;
9304;SDS011;4690;52.422;13.486;2023-11-21T13:18:30;4.40;;;4.00;;
9304;SDS011;4690;52.422;13.486;2023-11-21T13:20:58;4.53;;;4.13;;
9304;SDS011;4690;52.422;13.486;2023-11-21T13:23:28;5.00;;;4.60;;
9304;SDS011;4690;52.422;13.486;2023-11-21T13:26:01;4.07;;;3.47;;
9304;SDS011;4690;52.422;13.486;2023-11-21T13:28:29;4.03;;;3.63;;
9304;SDS011;4690;52.422;13.486;2023-11-21T13:30:58;4.03;;;3.60;;
9304;SDS011;4690;52.422;13.486;2023-11-21T13:33:35;3.80;;;3.33;;
9304;SDS011;4690;52.422;13.486;2023-11-21T13:36:03;3.73;;;3.43;;
9304;SDS011;4690;52.422;13.486;2023-11-21T13:38:33;3.97;;;3.60;;
9304;SDS011;4690;52.422;13.486;2023-11-21T13:41:00;4.10;;;3.53;;
9304;SDS011;4690;52.422;13.486;2023-11-21T13:43:26;4.23;;;3.83;;
9304;SDS011;4690;52.422;13.486;2023-11-21T13:45:54;4.63;;;4.20;;
9304;SDS011;4690;52.422;13.486;2023-11-21T13:48:31;4.70;;;4.30;;
9304;SDS011;4690;52.422;13.486;2023-11-21T13:51:12;5.53;;;4.60;;
9304;SDS011;4690;52.422;13.486;2023-11-21T13:53:42;5.47;;;4.97;;
9304;SDS011;4690;52.422;13.486;2023-11-21T13:56:14;5.57;;;4.80;;
9304;SDS011;4690;52.422;13.486;2023-11-21T13:58:45;5.90;;;5.40;;
9304;SDS011;4690;52.422;13.486;2023-11-21T14:01:20;5.00;;;4.60;;
9304;SDS011;4690;52.422;13.486;2023-11-21T14:04:12;5.70;;;5.20;;
9304;SDS011;4690;52.422;13.486;2023-11-21T14:06:41;5.93;;;5.43;;
9304;SDS011;4690;52.422;13.486;2023-11-21T14:09:15;5.70;;;5.20;;
9304;SDS011;4690;52.422;13.486;2023-11-21T14:12:00;5.87;;;5.37;;
9304;SDS011;4690;52.422;13.486;2023-11-21T14:14:31;6.23;;;5.50;;
9304;SDS011;4690;52.422;13.486;2023-11-21T14:16:57;6.47;;;5.87;;
9304;SDS011;4690;52.422;13.486;2023-11-21T14:19:23;6.20;;;5.60;;
9304;SDS011;4690;52.422;13.486;2023-11-21T14:21:56;8.27;;;6.07;;
9304;SDS011;4690;52.422;13.486;2023-11-21T14:24:22;7.40;;;6.80;;
9304;SDS011;4690;52.422;13.486;2023-11-21T14:26:49;8.40;;;7.50;;
9304;SDS011;4690;52.422;13.486;2023-11-21T14:29:16;7.70;;;7.00;;
9304;SDS011;4690;52.422;13.486;2023-11-21T14:31:48;8.50;;;7.80;;
9304;SDS011;4690;52.422;13.486;2023-11-21T14:34:16;8.73;;;7.93;;
9304;SDS011;4690;52.422;13.486;2023-11-21T14:36:43;9.63;;;8.83;;
9304;SDS011;4690;52.422;13.486;2023-11-21T14:39:09;9.60;;;8.80;;
9304;SDS011;4690;52.422;13.486;2023-11-21T14:41:47;11.37;;;9.90;;
9304;SDS011;4690;52.422;13.486;2023-11-21T14:44:14;12.00;;;10.90;;
9304;SDS011;4690;52.422;13.486;2023-11-21T14:46:40;14.37;;;13.07;;
9304;SDS011;4690;52.422;13.486;2023-11-21T14:49:11;15.40;;;13.90;;
9304;SDS011;4690;52.422;13.486;2023-11-21T14:51:52;15.70;;;14.20;;
9304;SDS011;4690;52.422;13.486;2023-11-21T14:54:26;16.87;;;15.17;;
9304;SDS011;4690;52.422;13.486;2023-11-21T14:57:06;18.53;;;16.70;;
9304;SDS011;4690;52.422;13.486;2023-11-21T14:59:36;18.00;;;16.30;;
9304;SDS011;4690;52.422;13.486;2023-11-21T15:02:08;19.07;;;17.27;;
9304;SDS011;4690;52.422;13.486;2023-11-21T15:04:43;20.00;;;17.87;;
9304;SDS011;4690;52.422;13.486;2023-11-21T15:07:09;23.03;;;20.83;;
9304;SDS011;4690;52.422;13.486;2023-11-21T15:09:36;23.57;;;21.23;;
9304;SDS011;4690;52.422;13.486;2023-11-21T15:12:11;24.00;;;21.60;;
9304;SDS011;4690;52.422;13.486;2023-11-21T15:14:47;25.13;;;22.63;;
9304;SDS011;4690;52.422;13.486;2023-11-21T15:17:19;24.83;;;22.30;;
9304;SDS011;4690;52.422;13.486;2023-11-21T15:19:51;26.30;;;23.70;;
9304;SDS011;4690;52.422;13.486;2023-11-21T15:22:19;27.03;;;24.27;;
9304;SDS011;4690;52.422;13.486;2023-11-21T15:24:45;25.67;;;22.97;;
9304;SDS011;4690;52.422;13.486;2023-11-21T15:27:14;25.57;;;22.93;;
9304;SDS011;4690;52.422;13.486;2023-11-21T15:29:42;24.93;;;22.43;;
9304;SDS011;4690;52.422;13.486;2023-11-21T15:32:08;25.10;;;22.57;;
9304;SDS011;4690;52.422;13.486;2023-11-21T15:34:35;24.77;;;22.33;;
9304;SDS011;4690;52.422;13.486;2023-11-21T15:37:02;25.63;;;22.90;;